createdAt,value
2023-01-25T06:33:39.734Z,0.00
2023-01-25T06:34:39.579Z,0.00
2023-01-25T06:35:39.563Z,0.00
2023-01-25T06:36:39.557Z,0.00
2023-01-25T06:37:39.550Z,0.00
2023-01-25T06:38:39.545Z,0.00
2023-01-25T06:39:39.665Z,0.00
2023-01-25T06:40:39.511Z,0.00
2023-01-25T06:41:39.495Z,0.00
2023-01-25T06:42:39.511Z,0.00
2023-01-25T06:43:39.468Z,0.00
2023-01-25T06:44:39.468Z,4.00
2023-01-25T06:45:39.448Z,0.00
2023-01-25T06:46:39.565Z,0.00
2023-01-25T06:47:39.426Z,0.00
2023-01-25T06:48:39.425Z,4.00
2023-01-25T06:49:39.436Z,0.00
2023-01-25T06:50:39.395Z,4.00
2023-01-25T06:51:39.384Z,0.00
2023-01-25T06:52:39.387Z,4.00
2023-01-25T06:53:39.363Z,4.00
2023-01-25T06:54:39.352Z,8.00
2023-01-25T06:55:39.359Z,8.00
2023-01-25T06:56:39.358Z,8.00
2023-01-25T06:57:39.324Z,8.00
2023-01-25T06:58:39.379Z,12.00
2023-01-25T06:59:39.301Z,12.00
2023-01-25T07:00:39.301Z,12.00
2023-01-25T07:01:39.314Z,12.00
2023-01-25T07:02:39.331Z,12.00
2023-01-25T07:03:39.257Z,16.00
2023-01-25T07:04:39.267Z,20.00
2023-01-25T07:05:39.261Z,24.00
2023-01-25T07:06:39.243Z,28.00
2023-01-25T07:07:39.213Z,28.00
2023-01-25T07:08:39.199Z,36.00
2023-01-25T07:09:39.188Z,40.00
2023-01-25T07:10:39.177Z,40.00
2023-01-25T07:11:39.177Z,44.00
2023-01-25T07:12:39.155Z,52.00
2023-01-25T07:13:39.163Z,60.00
2023-01-25T07:14:39.164Z,68.00
2023-01-25T07:15:39.132Z,72.00
2023-01-25T07:16:39.119Z,76.00
2023-01-25T07:17:39.102Z,84.00
2023-01-25T07:18:39.090Z,88.00
2023-01-25T07:19:39.090Z,96.00
2023-01-25T07:20:39.371Z,104.00
2023-01-25T07:21:39.090Z,112.00
2023-01-25T07:22:39.047Z,120.00
2023-01-25T07:23:39.051Z,132.00
2023-01-25T07:24:39.026Z,140.00
2023-01-25T07:25:39.018Z,148.00
2023-01-25T07:26:39.003Z,160.00
2023-01-25T07:27:38.996Z,176.00
2023-01-25T07:28:38.982Z,188.00
2023-01-25T07:29:38.973Z,200.00
2023-01-25T07:30:38.976Z,208.00
2023-01-25T07:31:39.008Z,220.00
2023-01-25T07:32:38.939Z,232.00
2023-01-25T07:33:38.931Z,248.00
2023-01-25T07:34:38.919Z,260.00
2023-01-25T07:35:38.911Z,268.00
2023-01-25T07:36:38.906Z,276.00
2023-01-25T07:37:38.913Z,296.00
2023-01-25T07:38:38.880Z,316.00
2023-01-25T07:39:38.866Z,332.00
2023-01-25T07:40:38.856Z,344.00
2023-01-25T07:41:38.842Z,364.00
2023-01-25T07:42:38.837Z,384.00
2023-01-25T07:43:38.825Z,408.00
2023-01-25T07:44:38.812Z,432.00
2023-01-25T07:45:38.804Z,456.00
2023-01-25T07:46:38.793Z,476.00
2023-01-25T07:47:38.779Z,496.00
2023-01-25T07:48:38.775Z,508.00
2023-01-25T07:49:38.756Z,536.00
2023-01-25T07:50:38.745Z,560.00
2023-01-25T07:51:38.734Z,580.00
2023-01-25T07:52:38.721Z,608.00
2023-01-25T07:53:38.742Z,628.00
2023-01-25T07:54:38.704Z,644.00
2023-01-25T07:55:38.693Z,656.00
2023-01-25T07:56:38.675Z,680.00
2023-01-25T07:57:38.683Z,704.00
2023-01-25T07:58:38.656Z,724.00
2023-01-25T07:59:38.680Z,748.00
2023-01-25T08:00:38.645Z,784.00
2023-01-25T08:01:38.632Z,808.00
2023-01-25T08:02:38.619Z,828.00
2023-01-25T08:03:38.603Z,844.00
2023-01-25T08:04:38.591Z,856.00
2023-01-25T08:05:39.565Z,872.00
2023-01-25T08:06:38.573Z,880.00
2023-01-25T08:07:38.603Z,888.00
2023-01-25T08:08:38.553Z,896.00
2023-01-25T08:09:38.572Z,912.00
2023-01-25T08:10:38.527Z,944.00
2023-01-25T08:11:38.518Z,984.00
2023-01-25T08:12:38.509Z,1032.00
2023-01-25T08:13:38.495Z,1052.00
2023-01-25T08:14:38.494Z,1068.00
2023-01-25T08:15:38.477Z,1100.00
2023-01-25T08:16:38.477Z,1132.00
2023-01-25T08:17:38.458Z,1160.00
2023-01-25T08:18:38.440Z,1172.00
2023-01-25T08:19:38.439Z,1176.00
2023-01-25T08:20:38.422Z,1176.00
2023-01-25T08:21:38.431Z,1188.00
2023-01-25T08:22:38.411Z,1212.00
2023-01-25T08:23:38.392Z,1244.00
2023-01-25T08:24:38.404Z,1268.00
2023-01-25T08:25:38.427Z,1296.00
2023-01-25T08:26:38.356Z,1324.00
2023-01-25T08:27:38.344Z,1360.00
2023-01-25T08:28:38.333Z,1388.00
2023-01-25T08:29:38.321Z,1392.00
2023-01-25T08:30:45.785Z,1388.00
2023-01-25T08:31:38.374Z,1400.00
2023-01-25T08:32:38.316Z,1432.00
2023-01-25T08:33:38.283Z,1448.00
2023-01-25T08:34:38.273Z,1464.00
2023-01-25T08:35:38.257Z,1508.00
2023-01-25T08:36:38.244Z,1556.00
2023-01-25T08:37:38.234Z,1584.00
2023-01-25T08:38:38.223Z,1596.00
2023-01-25T08:39:38.216Z,1620.00
2023-01-25T08:40:38.641Z,1688.00
2023-01-25T08:41:38.233Z,1784.00
2023-01-25T08:42:38.178Z,1808.00
2023-01-25T08:43:38.168Z,1804.00
2023-01-25T08:44:38.162Z,1836.00
2023-01-25T08:45:38.147Z,1852.00
2023-01-25T08:46:38.161Z,1916.00
2023-01-25T08:47:38.125Z,1980.00
2023-01-25T08:48:38.119Z,1972.00
2023-01-25T08:49:38.109Z,1972.00
2023-01-25T08:50:38.092Z,1976.00
2023-01-25T08:51:38.082Z,2000.00
2023-01-25T08:52:38.086Z,2084.00
2023-01-25T08:53:38.065Z,2188.00
2023-01-25T08:54:38.046Z,2236.00
2023-01-25T08:55:38.038Z,2268.00
2023-01-25T08:56:38.053Z,2308.00
2023-01-25T08:57:38.041Z,2252.00
2023-01-25T08:58:38.012Z,2224.00
2023-01-25T08:59:37.999Z,2220.00
2023-01-25T09:00:37.986Z,2224.00
2023-01-25T09:01:37.981Z,2204.00
2023-01-25T09:02:37.961Z,2192.00
2023-01-25T09:03:38.034Z,2188.00
2023-01-25T09:04:37.960Z,2208.00
2023-01-25T09:05:37.935Z,2240.00
2023-01-25T09:06:37.920Z,2272.00
2023-01-25T09:07:37.956Z,2280.00
2023-01-25T09:08:37.905Z,2292.00
2023-01-25T09:09:37.904Z,2320.00
2023-01-25T09:10:37.871Z,2320.00
2023-01-25T09:11:37.866Z,2312.00
2023-01-25T09:12:37.852Z,2308.00
2023-01-25T09:13:37.872Z,2304.00
2023-01-25T09:14:37.829Z,2292.00
2023-01-25T09:15:37.827Z,2288.00
2023-01-25T09:16:37.808Z,2308.00
2023-01-25T09:17:37.798Z,2356.00
2023-01-25T09:18:37.791Z,2444.00
2023-01-25T09:19:37.776Z,2532.00
2023-01-25T09:20:37.776Z,2592.00
2023-01-25T09:21:37.789Z,2704.00
2023-01-25T09:22:37.740Z,2828.00
2023-01-25T09:23:51.354Z,2936.00
2023-01-25T09:24:38.801Z,3008.00
2023-01-25T09:25:37.711Z,3032.00
2023-01-25T09:26:37.725Z,3044.00
2023-01-25T09:27:37.691Z,3020.00
2023-01-25T09:28:37.676Z,3008.00
2023-01-25T09:29:39.566Z,3032.00
2023-01-25T09:30:47.289Z,3076.00
2023-01-25T09:31:38.816Z,3180.00
2023-01-25T09:32:37.784Z,3340.00
2023-01-25T09:33:37.624Z,3412.00
2023-01-25T09:34:37.615Z,3312.00
2023-01-25T09:35:37.607Z,3180.00
2023-01-25T09:36:37.598Z,3152.00
2023-01-25T09:37:37.587Z,3256.00
2023-01-25T09:38:37.576Z,3248.00
2023-01-25T09:39:37.566Z,3164.00
2023-01-25T09:40:37.551Z,3196.00
2023-01-25T09:41:37.537Z,3284.00
2023-01-25T09:42:37.525Z,3332.00
2023-01-25T09:43:37.523Z,3336.00
2023-01-25T09:44:37.585Z,3308.00
2023-01-25T09:45:37.521Z,3264.00
2023-01-25T09:46:37.585Z,3272.00
2023-01-25T09:47:37.563Z,3328.00
2023-01-25T09:48:37.469Z,3344.00
2023-01-25T09:49:37.464Z,3376.00
2023-01-25T09:50:37.473Z,3420.00
2023-01-25T09:51:37.439Z,3420.00
2023-01-25T09:52:37.415Z,3376.00
2023-01-25T09:53:37.409Z,3308.00
2023-01-25T09:54:46.606Z,3304.00
2023-01-25T09:55:38.411Z,3340.00
2023-01-25T09:56:37.371Z,3364.00
2023-01-25T09:57:37.398Z,3336.00
2023-01-25T09:58:37.346Z,3364.00
2023-01-25T09:59:37.345Z,3428.00
2023-01-25T10:00:37.326Z,3480.00
2023-01-25T10:01:39.231Z,3484.00
2023-01-25T10:02:37.545Z,3480.00
2023-01-25T10:03:37.298Z,3496.00
2023-01-25T10:04:37.285Z,3480.00
2023-01-25T10:05:37.303Z,3496.00
2023-01-25T10:06:37.267Z,3460.00
2023-01-25T10:07:37.251Z,3432.00
2023-01-25T10:08:37.238Z,3440.00
2023-01-25T10:09:37.246Z,3404.00
2023-01-25T10:10:37.220Z,3368.00
2023-01-25T10:11:37.218Z,3336.00
2023-01-25T10:12:37.197Z,3304.00
2023-01-25T10:13:37.197Z,3332.00
2023-01-25T10:14:37.174Z,3376.00
2023-01-25T10:15:37.166Z,3408.00
2023-01-25T10:16:37.233Z,3428.00
2023-01-25T10:17:37.215Z,3448.00
2023-01-25T10:18:37.132Z,3432.00
2023-01-25T10:19:37.121Z,3344.00
2023-01-25T10:20:37.135Z,3260.00
2023-01-25T10:21:37.105Z,3268.00
2023-01-25T10:22:37.090Z,3268.00
2023-01-25T10:23:37.078Z,3280.00
2023-01-25T10:24:37.067Z,3308.00
2023-01-25T10:25:37.072Z,3360.00
2023-01-25T10:26:37.079Z,3400.00
2023-01-25T10:27:37.037Z,3424.00
2023-01-25T10:28:37.022Z,3492.00
2023-01-25T10:29:37.009Z,3504.00
2023-01-25T10:30:37.041Z,3504.00
2023-01-25T10:31:37.016Z,3532.00
2023-01-25T10:32:41.968Z,3576.00
2023-01-25T10:33:39.351Z,3600.00
2023-01-25T10:34:47.026Z,3612.00
2023-01-25T10:35:39.730Z,3664.00
2023-01-25T10:36:36.935Z,3668.00
2023-01-25T10:37:36.925Z,3664.00
2023-01-25T10:38:36.952Z,3592.00
2023-01-25T10:39:36.900Z,3560.00
2023-01-25T10:40:36.888Z,3608.00
2023-01-25T10:41:36.881Z,3584.00
2023-01-25T10:42:36.873Z,3564.00
2023-01-25T10:43:36.866Z,3608.00
2023-01-25T10:44:36.845Z,3608.00
2023-01-25T10:45:36.843Z,3616.00
2023-01-25T10:46:36.884Z,3648.00
2023-01-25T10:47:36.823Z,3708.00
2023-01-25T10:48:36.803Z,3764.00
2023-01-25T10:49:36.816Z,3780.00
2023-01-25T10:50:36.782Z,3860.00
2023-01-25T10:51:36.768Z,3896.00
2023-01-25T10:52:36.781Z,3892.00
2023-01-25T10:53:36.752Z,3900.00
2023-01-25T10:54:36.737Z,3972.00
2023-01-25T10:55:36.728Z,3932.00
2023-01-25T10:56:36.733Z,3804.00
2023-01-25T10:57:36.715Z,3884.00
2023-01-25T10:58:36.697Z,3920.00
2023-01-25T10:59:36.687Z,4048.00
2023-01-25T11:00:36.671Z,4132.00
2023-01-25T11:01:36.733Z,4004.00
2023-01-25T11:02:36.702Z,3936.00
2023-01-25T11:03:36.660Z,3844.00
2023-01-25T11:04:36.629Z,3740.00
2023-01-25T11:05:36.650Z,3760.00
2023-01-25T11:06:36.605Z,3780.00
2023-01-25T11:07:36.598Z,3804.00
2023-01-25T11:08:36.583Z,3804.00
2023-01-25T11:09:36.583Z,3788.00
2023-01-25T11:10:36.566Z,3704.00
2023-01-25T11:11:36.598Z,3676.00
2023-01-25T11:12:36.542Z,3672.00
2023-01-25T11:13:36.538Z,3680.00
2023-01-25T11:14:36.518Z,3676.00
2023-01-25T11:15:36.594Z,3620.00
2023-01-25T11:16:36.498Z,3568.00
2023-01-25T11:17:36.485Z,3560.00
2023-01-25T11:18:36.484Z,3552.00
2023-01-25T11:19:36.487Z,3488.00
2023-01-25T11:20:36.452Z,3468.00
2023-01-25T11:21:36.481Z,3492.00
2023-01-25T11:22:36.445Z,3488.00
2023-01-25T11:23:36.632Z,3556.00
2023-01-25T11:24:36.417Z,3616.00
2023-01-25T11:25:36.405Z,3624.00
2023-01-25T11:26:36.401Z,3656.00
2023-01-25T11:27:36.375Z,3760.00
2023-01-25T11:28:36.370Z,3760.00
2023-01-25T11:29:36.352Z,3756.00
2023-01-25T11:30:36.400Z,3876.00
2023-01-25T11:31:36.412Z,3872.00
2023-01-25T11:32:36.331Z,3788.00
2023-01-25T11:33:36.320Z,3792.00
2023-01-25T11:34:36.318Z,3852.00
2023-01-25T11:35:36.286Z,3808.00
2023-01-25T11:36:36.277Z,3704.00
2023-01-25T11:37:36.294Z,3568.00
2023-01-25T11:38:36.256Z,3500.00
2023-01-25T11:39:36.246Z,3560.00
2023-01-25T11:40:36.260Z,3644.00
2023-01-25T11:41:36.225Z,3836.00
2023-01-25T11:42:36.214Z,4004.00
2023-01-25T11:43:36.219Z,4024.00
2023-01-25T11:44:36.188Z,3912.00
2023-01-25T11:45:36.176Z,3964.00
2023-01-25T11:46:36.227Z,4088.00
2023-01-25T11:47:36.155Z,3992.00
2023-01-25T11:48:36.145Z,4020.00
2023-01-25T11:49:36.133Z,4060.00
2023-01-25T11:50:36.126Z,4052.00
2023-01-25T11:51:36.109Z,4048.00
2023-01-25T11:52:36.102Z,4024.00
2023-01-25T11:53:36.116Z,4012.00
2023-01-25T11:54:36.085Z,3888.00
2023-01-25T11:55:36.069Z,3784.00
2023-01-25T11:56:36.056Z,3820.00
2023-01-25T11:57:36.059Z,3840.00
2023-01-25T11:58:36.037Z,3860.00
2023-01-25T11:59:36.023Z,3824.00
2023-01-25T12:00:36.018Z,3696.00
2023-01-25T12:01:36.006Z,3568.00
2023-01-25T12:02:36.033Z,3448.00
2023-01-25T12:03:36.000Z,3492.00
2023-01-25T12:04:35.970Z,3552.00
2023-01-25T12:05:35.957Z,3516.00
2023-01-25T12:06:35.955Z,3604.00
2023-01-25T12:07:35.937Z,3588.00
2023-01-25T12:08:35.926Z,3468.00
2023-01-25T12:09:35.942Z,3420.00
2023-01-25T12:10:35.913Z,3396.00
2023-01-25T12:11:35.891Z,3436.00
2023-01-25T12:12:35.882Z,3452.00
2023-01-25T12:13:35.876Z,3424.00
2023-01-25T12:14:35.864Z,3348.00
2023-01-25T12:15:35.855Z,3300.00
2023-01-25T12:16:35.842Z,3256.00
2023-01-25T12:17:35.884Z,3292.00
2023-01-25T12:18:35.825Z,3364.00
2023-01-25T12:19:35.810Z,3396.00
2023-01-25T12:20:35.800Z,3440.00
2023-01-25T12:21:35.783Z,3404.00
2023-01-25T12:22:35.781Z,3344.00
2023-01-25T12:23:35.762Z,3416.00
2023-01-25T12:24:35.759Z,3432.00
2023-01-25T12:25:35.770Z,3388.00
2023-01-25T12:26:35.729Z,3300.00
2023-01-25T12:27:35.719Z,3272.00
2023-01-25T12:28:35.703Z,3268.00
2023-01-25T12:29:35.697Z,3228.00
2023-01-25T12:30:35.736Z,3216.00
2023-01-25T12:31:35.746Z,3184.00
2023-01-25T12:32:35.670Z,3192.00
2023-01-25T12:33:35.653Z,3196.00
2023-01-25T12:34:35.648Z,3152.00
2023-01-25T12:35:35.629Z,3096.00
2023-01-25T12:36:35.624Z,3024.00
2023-01-25T12:37:35.610Z,3032.00
2023-01-25T12:38:35.602Z,3020.00
2023-01-25T12:39:35.586Z,2996.00
2023-01-25T12:40:35.576Z,2996.00
2023-01-25T12:41:35.588Z,3124.00
2023-01-25T12:42:35.570Z,3212.00
2023-01-25T12:43:35.543Z,3220.00
2023-01-25T12:44:35.533Z,3212.00
2023-01-25T12:45:35.527Z,3212.00
2023-01-25T12:46:35.577Z,3208.00
2023-01-25T12:47:35.501Z,3224.00
2023-01-25T12:48:35.489Z,3380.00
2023-01-25T12:49:35.486Z,3392.00
2023-01-25T12:50:35.479Z,3380.00
2023-01-25T12:51:35.478Z,3332.00
2023-01-25T12:52:35.449Z,3328.00
2023-01-25T12:53:35.433Z,3300.00
2023-01-25T12:54:35.424Z,3260.00
2023-01-25T12:55:35.416Z,3192.00
2023-01-25T12:56:35.405Z,3060.00
2023-01-25T12:57:35.421Z,2996.00
2023-01-25T12:58:38.261Z,2996.00
2023-01-25T12:59:35.378Z,3016.00
2023-01-25T13:00:35.426Z,3160.00
2023-01-25T13:01:35.531Z,3312.00
2023-01-25T13:02:35.341Z,3424.00
2023-01-25T13:03:35.327Z,3408.00
2023-01-25T13:04:35.316Z,3308.00
2023-01-25T13:05:35.302Z,3296.00
2023-01-25T13:06:35.298Z,3308.00
2023-01-25T13:07:35.280Z,3396.00
2023-01-25T13:08:35.275Z,3396.00
2023-01-25T13:09:35.268Z,3380.00
2023-01-25T13:10:35.249Z,3348.00
2023-01-25T13:11:35.238Z,3320.00
2023-01-25T13:12:35.235Z,3344.00
2023-01-25T13:13:35.251Z,3332.00
2023-01-25T13:14:35.206Z,3288.00
2023-01-25T13:15:35.194Z,3224.00
2023-01-25T13:16:35.224Z,3204.00
2023-01-25T13:17:36.732Z,3240.00
2023-01-25T13:18:35.165Z,3248.00
2023-01-25T13:19:35.155Z,3184.00
2023-01-25T13:20:35.146Z,3092.00
2023-01-25T13:21:35.153Z,3016.00
2023-01-25T13:22:35.118Z,2952.00
2023-01-25T13:23:35.126Z,2888.00
2023-01-25T13:24:35.105Z,2804.00
2023-01-25T13:25:35.089Z,2804.00
2023-01-25T13:26:35.075Z,2892.00
2023-01-25T13:27:35.061Z,2988.00
2023-01-25T13:28:35.053Z,3016.00
2023-01-25T13:29:35.065Z,2992.00
2023-01-25T13:30:35.160Z,2968.00
2023-01-25T13:31:50.623Z,2996.00
2023-01-25T13:32:35.025Z,3036.00
2023-01-25T13:33:34.997Z,3048.00
2023-01-25T13:34:34.998Z,3044.00
2023-01-25T13:35:34.982Z,2944.00
2023-01-25T13:36:34.968Z,2852.00
2023-01-25T13:37:34.952Z,2784.00
2023-01-25T13:38:34.945Z,2720.00
2023-01-25T13:39:34.933Z,2664.00
2023-01-25T13:40:35.244Z,2656.00
2023-01-25T13:41:34.991Z,2624.00
2023-01-25T13:42:35.013Z,2612.00
2023-01-25T13:43:35.030Z,2612.00
2023-01-25T13:44:35.041Z,2616.00
2023-01-25T13:45:35.250Z,2596.00
2023-01-25T13:46:35.020Z,2584.00
2023-01-25T13:47:34.841Z,2548.00
2023-01-25T13:48:36.830Z,2532.00
2023-01-25T13:49:34.820Z,2532.00
2023-01-25T13:50:34.821Z,2524.00
2023-01-25T13:51:34.802Z,2496.00
2023-01-25T13:52:34.792Z,2448.00
2023-01-25T13:53:34.784Z,2432.00
2023-01-25T13:54:34.771Z,2388.00
2023-01-25T13:55:34.757Z,2364.00
2023-01-25T13:56:34.749Z,2376.00
2023-01-25T13:57:34.736Z,2412.00
2023-01-25T13:58:34.735Z,2432.00
2023-01-25T13:59:34.725Z,2444.00
2023-01-25T14:00:34.713Z,2432.00
2023-01-25T14:01:34.725Z,2332.00
2023-01-25T14:02:34.682Z,2288.00
2023-01-25T14:03:34.673Z,2256.00
2023-01-25T14:04:34.660Z,2240.00
2023-01-25T14:05:34.646Z,2232.00
2023-01-25T14:06:34.642Z,2196.00
2023-01-25T14:07:34.637Z,2148.00
2023-01-25T14:08:34.617Z,2144.00
2023-01-25T14:09:34.603Z,2172.00
2023-01-25T14:10:34.615Z,2172.00
2023-01-25T14:11:34.624Z,2164.00
2023-01-25T14:12:34.576Z,2176.00
2023-01-25T14:13:34.572Z,2220.00
2023-01-25T14:14:34.552Z,2196.00
2023-01-25T14:15:34.536Z,2176.00
2023-01-25T14:16:34.554Z,2172.00
2023-01-25T14:17:34.541Z,2144.00
2023-01-25T14:18:34.510Z,2052.00
2023-01-25T14:19:34.496Z,1992.00
2023-01-25T14:20:34.503Z,1984.00
2023-01-25T14:21:34.478Z,1988.00
2023-01-25T14:22:34.476Z,1952.00
2023-01-25T14:23:34.477Z,1940.00
2023-01-25T14:24:34.447Z,1952.00
2023-01-25T14:25:34.431Z,1916.00
2023-01-25T14:26:34.418Z,1864.00
2023-01-25T14:27:34.405Z,1856.00
2023-01-25T14:28:34.421Z,1884.00
2023-01-25T14:29:34.384Z,1848.00
2023-01-25T14:30:34.461Z,1792.00
2023-01-25T14:31:34.452Z,1812.00
2023-01-25T14:32:34.356Z,1780.00
2023-01-25T14:33:34.370Z,1668.00
2023-01-25T14:34:34.333Z,1612.00
2023-01-25T14:35:54.155Z,1616.00
2023-01-25T14:36:35.365Z,1560.00
2023-01-25T14:37:34.319Z,1516.00
2023-01-25T14:38:34.305Z,1504.00
2023-01-25T14:39:34.298Z,1512.00
2023-01-25T14:40:34.270Z,1536.00
2023-01-25T14:41:34.273Z,1560.00
2023-01-25T14:42:34.255Z,1584.00
2023-01-25T14:43:34.233Z,1592.00
2023-01-25T14:44:34.226Z,1572.00
2023-01-25T14:45:34.211Z,1544.00
2023-01-25T14:46:34.210Z,1424.00
2023-01-25T14:47:34.190Z,1348.00
2023-01-25T14:48:34.184Z,1320.00
2023-01-25T14:49:34.192Z,1308.00
2023-01-25T14:50:34.161Z,1292.00
2023-01-25T14:51:35.063Z,1268.00
2023-01-25T14:52:34.147Z,1212.00
2023-01-25T14:53:34.125Z,1148.00
2023-01-25T14:54:34.121Z,1104.00
2023-01-25T14:55:34.107Z,1064.00
2023-01-25T14:56:34.108Z,1004.00
2023-01-25T14:57:34.108Z,960.00
2023-01-25T14:58:34.071Z,940.00
2023-01-25T14:59:34.067Z,916.00
2023-01-25T15:00:34.049Z,880.00
2023-01-25T15:01:34.046Z,880.00
2023-01-25T15:02:34.069Z,860.00
2023-01-25T15:03:34.014Z,844.00
2023-01-25T15:04:35.566Z,820.00
2023-01-25T15:05:34.045Z,788.00
2023-01-25T15:06:33.984Z,760.00
2023-01-25T15:07:33.974Z,720.00
2023-01-25T15:08:33.966Z,696.00
2023-01-25T15:09:33.951Z,656.00
2023-01-25T15:10:33.946Z,620.00
2023-01-25T15:11:33.940Z,584.00
2023-01-25T15:12:33.935Z,552.00
2023-01-25T15:13:33.908Z,532.00
2023-01-25T15:14:33.904Z,532.00
2023-01-25T15:15:33.893Z,516.00
2023-01-25T15:16:33.942Z,524.00
2023-01-25T15:17:33.871Z,516.00
2023-01-25T15:18:33.865Z,512.00
2023-01-25T15:19:33.847Z,500.00
2023-01-25T15:20:33.841Z,488.00
2023-01-25T15:21:33.852Z,472.00
2023-01-25T15:22:33.814Z,472.00
2023-01-25T15:23:33.805Z,464.00
2023-01-25T15:24:33.793Z,456.00
2023-01-25T15:25:33.781Z,440.00
2023-01-25T15:26:33.777Z,404.00
2023-01-25T15:27:33.763Z,380.00
2023-01-25T15:28:33.755Z,372.00
2023-01-25T15:29:33.735Z,372.00
2023-01-25T15:30:33.814Z,360.00
2023-01-25T15:31:33.784Z,336.00
2023-01-25T15:32:33.706Z,324.00
2023-01-25T15:33:33.698Z,316.00
2023-01-25T15:34:33.683Z,284.00
2023-01-25T15:35:33.668Z,272.00
2023-01-25T15:36:33.675Z,264.00
2023-01-25T15:37:33.669Z,252.00
2023-01-25T15:38:33.636Z,236.00
2023-01-25T15:39:33.938Z,224.00
2023-01-25T15:40:33.731Z,216.00
2023-01-25T15:41:33.617Z,208.00
2023-01-25T15:42:33.594Z,192.00
2023-01-25T15:43:33.584Z,184.00
2023-01-25T15:44:33.567Z,172.00
2023-01-25T15:45:33.761Z,160.00
2023-01-25T15:46:33.562Z,152.00
2023-01-25T15:47:33.539Z,140.00
2023-01-25T15:48:33.535Z,132.00
2023-01-25T15:49:33.516Z,124.00
2023-01-25T15:50:33.530Z,112.00
2023-01-25T15:51:35.576Z,104.00
2023-01-25T15:52:33.482Z,100.00
2023-01-25T15:53:33.504Z,96.00
2023-01-25T15:54:33.460Z,84.00
2023-01-25T15:55:33.447Z,80.00
2023-01-25T15:56:33.437Z,72.00
2023-01-25T15:57:33.425Z,68.00
2023-01-25T15:58:33.409Z,60.00
2023-01-25T15:59:33.490Z,52.00
2023-01-25T16:00:33.393Z,52.00
2023-01-25T16:01:33.436Z,44.00
2023-01-25T16:02:33.457Z,44.00
2023-01-25T16:03:33.361Z,40.00
2023-01-25T16:04:33.347Z,36.00
2023-01-25T16:05:33.337Z,28.00
2023-01-25T16:06:33.323Z,28.00
2023-01-25T16:07:33.315Z,24.00
2023-01-25T16:08:33.539Z,20.00
2023-01-25T16:09:33.345Z,16.00
2023-01-25T16:10:33.280Z,16.00
2023-01-25T16:11:33.271Z,16.00
2023-01-25T16:12:33.257Z,12.00
2023-01-25T16:13:33.249Z,12.00
2023-01-25T16:14:33.232Z,8.00
2023-01-25T16:15:33.224Z,4.00
2023-01-25T16:16:33.222Z,4.00
2023-01-25T16:17:33.203Z,4.00
2023-01-25T16:18:33.190Z,4.00
2023-01-25T16:19:33.331Z,4.00
2023-01-25T16:20:33.165Z,4.00
2023-01-25T16:21:33.158Z,4.00
2023-01-25T16:22:33.143Z,0.00
2023-01-25T16:23:33.134Z,4.00
2023-01-25T16:24:33.123Z,4.00
2023-01-25T16:25:33.141Z,0.00
2023-01-25T16:26:33.101Z,0.00
2023-01-25T16:27:33.090Z,0.00
2023-01-25T16:28:33.090Z,0.00
2023-01-25T16:29:33.093Z,0.00
2023-01-25T16:30:33.310Z,0.00
2023-01-25T16:31:33.665Z,0.00
2023-01-25T16:32:33.034Z,0.00
2023-01-25T16:33:33.027Z,0.00
2023-01-25T16:34:33.009Z,0.00
2023-01-25T16:35:33.000Z,0.00
2023-01-25T16:36:33.017Z,0.00
2023-01-25T16:37:32.984Z,0.00
2023-01-25T16:38:32.973Z,0.00
2023-01-25T16:39:33.027Z,0.00
2023-01-25T16:40:32.940Z,0.00
2023-01-25T16:41:32.954Z,0.00
2023-01-25T16:42:32.927Z,0.00
2023-01-25T16:43:42.422Z,0.00
2023-01-25T16:44:33.929Z,0.00
2023-01-25T16:45:32.894Z,0.00
2023-01-25T16:46:32.895Z,0.00
2023-01-25T16:47:32.870Z,0.00
2023-01-25T16:48:32.859Z,0.00
2023-01-25T16:49:32.866Z,0.00
2023-01-25T16:50:32.842Z,0.00
2023-01-25T16:51:32.851Z,0.00
2023-01-25T16:52:32.808Z,0.00
2023-01-25T16:53:32.804Z,0.00
2023-01-25T16:54:33.072Z,0.00
2023-01-25T16:55:32.780Z,0.00
2023-01-25T16:56:32.763Z,0.00
2023-01-25T16:57:32.777Z,0.00
2023-01-25T16:58:32.742Z,0.00
2023-01-25T16:59:32.733Z,0.00
2023-01-25T17:00:32.722Z,0.00
2023-01-25T17:01:33.100Z,0.00
2023-01-25T17:02:32.762Z,0.00
2023-01-25T17:03:32.686Z,0.00
2023-01-25T17:04:32.677Z,0.00
2023-01-25T17:05:32.676Z,0.00
2023-01-25T17:06:32.651Z,0.00
2023-01-25T17:07:32.643Z,0.00
2023-01-25T17:08:32.639Z,0.00
2023-01-25T17:09:32.618Z,0.00
2023-01-25T17:10:32.608Z,0.00
2023-01-25T17:11:32.603Z,0.00
2023-01-25T17:12:32.584Z,0.00
2023-01-25T17:13:32.603Z,0.00
2023-01-25T17:14:32.564Z,0.00
2023-01-25T17:15:32.598Z,0.00
2023-01-25T17:16:32.680Z,0.00
2023-01-25T17:17:32.678Z,0.00
2023-01-25T17:18:32.738Z,0.00
2023-01-25T17:19:32.754Z,0.00
2023-01-25T17:20:32.519Z,0.00
2023-01-25T17:21:32.551Z,0.00
2023-01-25T17:22:32.484Z,0.00
2023-01-25T17:23:32.469Z,0.00
2023-01-25T17:24:32.460Z,0.00
2023-01-25T17:25:32.440Z,0.00
2023-01-25T17:26:32.430Z,0.00
2023-01-25T17:27:32.435Z,0.00
2023-01-25T17:28:32.410Z,0.00
2023-01-25T17:29:32.422Z,0.00
2023-01-25T17:30:32.401Z,0.00
2023-01-25T17:31:32.554Z,0.00
2023-01-25T17:32:32.363Z,0.00
2023-01-25T17:33:32.355Z,0.00
2023-01-25T17:34:32.348Z,0.00
2023-01-25T17:35:32.331Z,0.00
2023-01-25T17:36:32.318Z,0.00
2023-01-25T17:37:32.307Z,0.00
2023-01-25T17:38:32.297Z,0.00
2023-01-25T17:39:32.283Z,0.00
2023-01-25T17:40:32.272Z,0.00
2023-01-25T17:41:32.280Z,0.00
2023-01-25T17:42:32.249Z,0.00
2023-01-25T17:43:34.445Z,0.00
2023-01-25T17:44:32.226Z,0.00
2023-01-25T17:45:32.241Z,0.00
2023-01-25T17:46:32.259Z,0.00
2023-01-25T17:47:32.193Z,0.00
2023-01-25T17:48:32.193Z,0.00
2023-01-25T17:49:32.175Z,0.00
2023-01-25T17:50:32.162Z,0.00
2023-01-25T17:51:32.159Z,0.00
2023-01-25T17:52:32.146Z,0.00
2023-01-25T17:53:32.140Z,0.00
2023-01-25T17:54:32.111Z,0.00
2023-01-25T17:55:32.103Z,0.00
2023-01-25T17:56:32.099Z,0.00
2023-01-25T17:57:32.085Z,0.00
2023-01-25T17:58:32.069Z,0.00
2023-01-25T17:59:32.058Z,0.00
2023-01-25T18:00:32.066Z,0.00
2023-01-25T18:01:32.291Z,0.00
2023-01-25T18:02:32.098Z,0.00
2023-01-25T18:03:33.996Z,0.00
2023-01-25T18:04:32.001Z,0.00
2023-01-25T18:05:31.999Z,0.00
2023-01-25T18:06:31.981Z,0.00
2023-01-25T18:07:31.976Z,0.00
2023-01-25T18:08:31.966Z,0.00
2023-01-25T18:09:31.971Z,0.00
2023-01-25T18:10:31.932Z,0.00
2023-01-25T18:11:31.941Z,0.00
2023-01-25T18:12:31.914Z,0.00
2023-01-25T18:13:31.906Z,0.00
2023-01-25T18:14:31.898Z,0.00
2023-01-25T18:15:31.896Z,0.00
2023-01-25T18:16:31.900Z,0.00
2023-01-25T18:17:31.886Z,0.00
2023-01-25T18:18:31.865Z,0.00
2023-01-25T18:19:31.840Z,0.00
2023-01-25T18:20:31.826Z,0.00
2023-01-25T18:21:31.817Z,0.00
2023-01-25T18:22:31.807Z,0.00
2023-01-25T18:23:31.796Z,0.00
2023-01-25T18:24:31.817Z,0.00
2023-01-25T18:25:31.788Z,0.00
2023-01-25T18:26:31.768Z,0.00
2023-01-25T18:27:31.750Z,0.00
2023-01-25T18:28:31.736Z,0.00
2023-01-25T18:29:31.724Z,0.00
2023-01-25T18:30:31.729Z,0.00
2023-01-25T18:31:31.855Z,0.00
2023-01-25T18:32:31.691Z,0.00
2023-01-25T18:33:31.708Z,0.00
2023-01-25T18:34:31.679Z,0.00
2023-01-25T18:35:31.669Z,0.00
2023-01-25T18:36:31.687Z,0.00
2023-01-25T18:37:31.644Z,0.00
2023-01-25T18:38:31.644Z,0.00
2023-01-25T18:39:31.680Z,0.00
2023-01-25T18:40:31.618Z,0.00
2023-01-25T18:41:31.593Z,0.00
2023-01-25T18:42:31.580Z,0.00
2023-01-25T18:43:31.568Z,0.00
2023-01-25T18:44:31.572Z,0.00
2023-01-25T18:45:31.558Z,0.00
2023-01-25T18:46:31.571Z,0.00
2023-01-25T18:47:31.528Z,0.00
2023-01-25T18:48:31.519Z,0.00
2023-01-25T18:49:31.529Z,0.00
2023-01-25T18:50:31.490Z,0.00
2023-01-25T18:51:31.494Z,0.00
2023-01-25T18:52:31.471Z,0.00
2023-01-25T18:53:31.460Z,0.00
2023-01-25T18:54:31.450Z,0.00
2023-01-25T18:55:31.441Z,0.00
2023-01-25T18:56:31.437Z,0.00
2023-01-25T18:57:31.430Z,0.00
2023-01-25T18:58:31.403Z,0.00
2023-01-25T18:59:31.405Z,0.00
2023-01-25T19:00:31.384Z,0.00
2023-01-25T19:01:31.494Z,0.00
2023-01-25T19:02:31.436Z,0.00